createdAt,value
2023-03-27T00:00:57.907Z,2.7
2023-03-27T00:02:14.197Z,2.7
2023-03-27T00:03:30.494Z,2.6
2023-03-27T00:04:46.793Z,3
2023-03-27T00:06:03.081Z,2.9
2023-03-27T00:07:19.394Z,2.8
2023-03-27T00:08:35.681Z,2.8
2023-03-27T00:09:51.964Z,2.5
2023-03-27T00:11:08.262Z,3.4
2023-03-27T00:12:24.559Z,2.9
2023-03-27T00:13:40.846Z,2.9
2023-03-27T00:14:57.140Z,3.1
2023-03-27T00:16:13.445Z,2.6
2023-03-27T00:17:28.756Z,2.9
2023-03-27T00:18:45.041Z,2.7
2023-03-27T00:20:01.334Z,2.5
2023-03-27T00:21:17.628Z,2.9
2023-03-27T00:22:33.936Z,2.5
2023-03-27T00:23:50.223Z,2.6
2023-03-27T00:25:06.511Z,2.6
2023-03-27T00:26:21.833Z,2.7
2023-03-27T00:27:37.151Z,2.8
2023-03-27T00:28:52.462Z,2.9
2023-03-27T00:30:07.771Z,2.5
2023-03-27T00:31:24.060Z,2.7
2023-03-27T00:32:40.367Z,2.5
2023-03-27T00:33:56.663Z,2.6
2023-03-27T00:35:12.948Z,2.4
2023-03-27T00:36:29.236Z,2.6
2023-03-27T00:37:45.538Z,2.5
2023-03-27T00:39:01.836Z,2.5
2023-03-27T00:40:18.118Z,2.4
2023-03-27T00:41:34.414Z,2.4
2023-03-27T00:42:50.713Z,2.4
2023-03-27T00:44:07.001Z,2.3
2023-03-27T00:45:23.312Z,2.2
2023-03-27T00:46:38.617Z,2.3
2023-03-27T00:47:54.914Z,2.6
2023-03-27T00:49:11.203Z,2.2
2023-03-27T00:50:27.489Z,2.1
2023-03-27T00:51:43.793Z,3
2023-03-27T00:53:00.084Z,2.7
2023-03-27T00:54:16.372Z,2.3
2023-03-27T00:55:31.693Z,2.6
2023-03-27T00:56:47.000Z,2.3
2023-03-27T00:58:03.296Z,2.7
2023-03-27T00:59:19.599Z,2.3
2023-03-27T01:00:35.885Z,2.4
2023-03-27T01:01:52.180Z,2.4
2023-03-27T01:03:08.480Z,2.6
2023-03-27T01:04:24.768Z,2.3
2023-03-27T01:05:41.070Z,2.7
2023-03-27T01:06:57.355Z,2.7
2023-03-27T01:08:13.647Z,2.8
2023-03-27T01:09:29.955Z,2.6
2023-03-27T01:10:46.235Z,2.6
2023-03-27T01:12:02.542Z,2.4
2023-03-27T01:13:17.848Z,2.9
2023-03-27T01:14:34.149Z,2.6
2023-03-27T01:15:50.430Z,2.8
2023-03-27T01:17:06.740Z,3
2023-03-27T01:18:23.030Z,2.4
2023-03-27T01:19:39.310Z,2.3
2023-03-27T01:20:55.616Z,2.5
2023-03-27T01:22:10.922Z,2.4
2023-03-27T01:23:26.235Z,2.7
2023-03-27T01:24:41.564Z,2.7
2023-03-27T01:25:56.863Z,2.6
2023-03-27T01:27:13.157Z,2.4
2023-03-27T01:28:29.450Z,2.5
2023-03-27T01:29:45.747Z,2.6
2023-03-27T01:31:02.043Z,2.6
2023-03-27T01:32:18.331Z,2.5
2023-03-27T01:33:34.640Z,2.4
2023-03-27T01:34:50.925Z,2.2
2023-03-27T01:36:07.224Z,2.3
2023-03-27T01:37:23.518Z,2.4
2023-03-27T01:38:39.804Z,2.2
2023-03-27T01:39:56.105Z,2.5
2023-03-27T01:41:12.389Z,2.3
2023-03-27T01:42:27.709Z,2.3
2023-03-27T01:43:44.001Z,2.5
2023-03-27T01:45:00.300Z,2.3
2023-03-27T01:46:16.585Z,2.5
2023-03-27T01:47:32.897Z,2.6
2023-03-27T01:48:49.178Z,2.4
2023-03-27T01:50:05.467Z,2.6
2023-03-27T01:51:20.799Z,2.4
2023-03-27T01:52:36.094Z,2.9
2023-03-27T01:53:51.427Z,2.5
2023-03-27T01:55:06.746Z,2.3
2023-03-27T01:56:22.045Z,2.8
2023-03-27T01:57:37.358Z,2.4
2023-03-27T01:58:53.665Z,2.6
2023-03-27T02:00:09.948Z,2.8
2023-03-27T02:01:26.254Z,2.4
2023-03-27T02:02:42.534Z,2.6
2023-03-27T02:03:58.825Z,2.6
2023-03-27T02:05:15.124Z,2.4
2023-03-27T02:06:31.416Z,2.5
2023-03-27T02:07:47.714Z,2.5
2023-03-27T02:09:04.012Z,2.5
2023-03-27T02:10:20.307Z,2.5
2023-03-27T02:11:36.604Z,2.3
2023-03-27T02:12:52.886Z,2.4
2023-03-27T02:15:24.505Z,2.8
2023-03-27T02:16:40.790Z,2.7
2023-03-27T02:17:57.091Z,2.4
2023-03-27T02:19:13.383Z,2.7
2023-03-27T02:20:29.679Z,2.4
2023-03-27T02:21:45.969Z,2.3
2023-03-27T02:23:02.265Z,2.3
2023-03-27T02:24:17.585Z,2.6
2023-03-27T02:25:32.882Z,2.5
2023-03-27T02:26:49.189Z,2.4
2023-03-27T02:28:05.488Z,2.2
2023-03-27T02:29:21.770Z,2.2
2023-03-27T02:30:38.065Z,2.5
2023-03-27T02:31:54.365Z,2.6
2023-03-27T02:33:10.650Z,2.5
2023-03-27T02:34:26.948Z,2.2
2023-03-27T02:35:43.249Z,2.4
2023-03-27T02:36:59.540Z,2.2
2023-03-27T02:38:15.826Z,2.5
2023-03-27T02:39:32.124Z,2.6
2023-03-27T02:40:48.416Z,2.3
2023-03-27T02:42:03.730Z,2.4
2023-03-27T02:43:20.025Z,2.4
2023-03-27T02:44:36.330Z,2.4
2023-03-27T02:45:52.626Z,2.3
2023-03-27T02:47:08.902Z,2.3
2023-03-27T02:48:25.204Z,2.2
2023-03-27T02:49:41.496Z,2.4
2023-03-27T02:50:56.818Z,2.6
2023-03-27T02:52:12.123Z,2.2
2023-03-27T02:53:28.421Z,2.2
2023-03-27T02:54:44.717Z,2.2
2023-03-27T02:56:01.011Z,2.4
2023-03-27T02:57:17.306Z,2.3
2023-03-27T02:58:33.590Z,2.4
2023-03-27T02:59:49.893Z,2.4
2023-03-27T03:01:06.176Z,2.3
2023-03-27T03:02:22.472Z,2.4
2023-03-27T03:03:38.765Z,2.1
2023-03-27T03:04:55.060Z,2.5
2023-03-27T03:06:11.351Z,2.3
2023-03-27T03:07:27.647Z,2.3
2023-03-27T03:08:42.961Z,2.5
2023-03-27T03:09:59.262Z,2.4
2023-03-27T03:11:15.556Z,2.1
2023-03-27T03:12:31.857Z,2.1
2023-03-27T03:13:48.153Z,2.1
2023-03-27T03:15:04.434Z,2.3
2023-03-27T03:16:20.734Z,2.1
2023-03-27T03:17:36.054Z,2.1
2023-03-27T03:18:51.349Z,2.3
2023-03-27T03:20:07.643Z,2.1
2023-03-27T03:21:23.945Z,2.2
2023-03-27T03:22:40.246Z,2.2
2023-03-27T03:23:56.530Z,2
2023-03-27T03:25:12.828Z,2.1
2023-03-27T03:26:29.117Z,2.4
2023-03-27T03:27:45.423Z,2.3
2023-03-27T03:29:01.725Z,2.1
2023-03-27T03:30:18.002Z,2.1
2023-03-27T03:31:34.311Z,2.1
2023-03-27T03:32:50.606Z,2.2
2023-03-27T03:34:06.891Z,2.1
2023-03-27T03:35:22.201Z,2.2
2023-03-27T03:36:38.494Z,2
2023-03-27T03:37:54.783Z,2.3
2023-03-27T03:39:11.074Z,2.1
2023-03-27T03:40:27.383Z,2.2
2023-03-27T03:41:43.673Z,2.4
2023-03-27T03:42:59.959Z,2.2
2023-03-27T03:44:15.282Z,2.2
2023-03-27T03:45:30.588Z,1.9
2023-03-27T03:46:45.905Z,2.1
2023-03-27T03:48:01.221Z,2.2
2023-03-27T03:49:17.505Z,2.2
2023-03-27T03:50:33.806Z,2.1
2023-03-27T03:51:50.091Z,2.3
2023-03-27T03:53:06.392Z,2.2
2023-03-27T03:54:22.694Z,2.4
2023-03-27T03:55:38.982Z,2.1
2023-03-27T03:56:55.280Z,2.4
2023-03-27T03:58:11.572Z,2.1
2023-03-27T03:59:27.873Z,2.1
2023-03-27T04:00:44.170Z,2.2
2023-03-27T04:02:00.461Z,2.4
2023-03-27T04:03:16.739Z,2.1
2023-03-27T04:04:32.055Z,2.3
2023-03-27T04:05:48.360Z,2.1
2023-03-27T04:07:04.653Z,2.2
2023-03-27T04:08:20.946Z,2.1
2023-03-27T04:09:37.240Z,2.5
2023-03-27T04:10:53.523Z,2.1
2023-03-27T04:12:09.821Z,2
2023-03-27T04:13:25.135Z,2.3
2023-03-27T04:14:40.452Z,2.1
2023-03-27T04:15:55.770Z,2.2
2023-03-27T04:17:11.074Z,2.1
2023-03-27T04:18:26.403Z,2.5
2023-03-27T04:19:41.706Z,2.3
2023-03-27T04:20:57.000Z,2.3
2023-03-27T04:22:12.341Z,2.3
2023-03-27T04:23:28.626Z,2.4
2023-03-27T04:24:44.907Z,2.3
2023-03-27T04:26:01.222Z,2.4
2023-03-27T04:27:17.512Z,2.2
2023-03-27T04:28:33.795Z,2.7
2023-03-27T04:29:50.090Z,2.2
2023-03-27T04:31:06.325Z,2.5
2023-03-27T04:32:22.593Z,2.6
2023-03-27T04:33:38.835Z,2.5
2023-03-27T04:34:55.071Z,2.5
2023-03-27T04:36:11.312Z,2.3
2023-03-27T04:37:27.546Z,2.2
2023-03-27T04:38:42.825Z,2.4
2023-03-27T04:39:59.000Z,2.5
2023-03-27T04:41:15.288Z,2.6
2023-03-27T04:42:31.551Z,2.6
2023-03-27T04:43:47.793Z,2.6
2023-03-27T04:45:04.023Z,2.7
2023-03-27T04:46:20.267Z,2.6
2023-03-27T04:47:35.535Z,2.9
2023-03-27T04:48:50.781Z,2.5
2023-03-27T04:50:07.024Z,2.6
2023-03-27T04:51:23.276Z,2.8
2023-03-27T04:52:39.499Z,2.8
2023-03-27T04:53:55.739Z,2.8
2023-03-27T04:55:11.979Z,2.7
2023-03-27T04:56:28.233Z,2.5
2023-03-27T04:57:44.472Z,2.5
2023-03-27T04:59:00.717Z,2.6
2023-03-27T05:00:16.943Z,2.6
2023-03-27T05:01:33.188Z,2.4
2023-03-27T05:02:49.439Z,2.6
2023-03-27T05:04:05.672Z,2.5
2023-03-27T05:05:20.928Z,2.6
2023-03-27T05:06:37.161Z,2.4
2023-03-27T05:07:53.403Z,2.5
2023-03-27T05:09:09.644Z,2.3
2023-03-27T05:10:25.894Z,2.4
2023-03-27T05:11:42.126Z,2.3
2023-03-27T05:12:58.361Z,2.4
2023-03-27T05:14:13.621Z,2.5
2023-03-27T05:15:28.890Z,2.6
2023-03-27T05:16:45.138Z,2.6
2023-03-27T05:18:01.365Z,2.6
2023-03-27T05:19:17.614Z,2.9
2023-03-27T05:20:33.841Z,2.9
2023-03-27T05:21:50.091Z,3
2023-03-27T05:23:06.329Z,2.8
2023-03-27T05:24:22.572Z,2.7
2023-03-27T05:25:38.817Z,2.7
2023-03-27T05:26:55.054Z,3.3
2023-03-27T05:28:11.298Z,3.8
2023-03-27T05:29:27.538Z,3.8
2023-03-27T05:30:43.763Z,3.9
2023-03-27T05:31:59.032Z,3.9
2023-03-27T05:33:15.271Z,4.1
2023-03-27T05:34:31.518Z,3.6
2023-03-27T05:35:47.745Z,3.9
2023-03-27T05:37:03.992Z,3.3
2023-03-27T05:38:20.232Z,3.8
2023-03-27T05:39:36.480Z,3.2
2023-03-27T05:40:51.734Z,2.7
2023-03-27T05:42:06.991Z,2.8
2023-03-27T05:43:22.257Z,2.7
2023-03-27T05:44:37.506Z,2.6
2023-03-27T05:45:52.774Z,2.5
2023-03-27T05:47:08.030Z,2.4
2023-03-27T05:48:24.275Z,2.6
2023-03-27T05:49:40.510Z,2.5
2023-03-27T05:50:56.747Z,2.3
2023-03-27T05:52:12.986Z,2.8
2023-03-27T05:53:29.229Z,2.3
2023-03-27T05:54:45.470Z,2.5
2023-03-27T05:56:01.701Z,2.6
2023-03-27T05:57:17.949Z,2.5
2023-03-27T05:58:34.187Z,2.6
2023-03-27T05:59:50.432Z,2.6
2023-03-27T06:01:06.675Z,2.5
2023-03-27T06:02:22.922Z,2.5
2023-03-27T06:03:38.171Z,2.6
2023-03-27T06:04:54.417Z,3
2023-03-27T06:06:10.649Z,2.3
2023-03-27T06:07:26.892Z,2.7
2023-03-27T06:08:42.151Z,2.3
2023-03-27T06:09:58.399Z,2.4
2023-03-27T06:11:14.629Z,2.7
2023-03-27T06:12:29.892Z,2.5
2023-03-27T06:13:45.145Z,2.7
2023-03-27T06:15:00.416Z,2.5
2023-03-27T06:16:15.660Z,2.7
2023-03-27T06:17:31.907Z,2.3
2023-03-27T06:18:48.149Z,2.5
2023-03-27T06:20:04.382Z,2.5
2023-03-27T06:21:20.623Z,2.6
2023-03-27T06:22:36.869Z,2.6
2023-03-27T06:23:53.106Z,2.5
2023-03-27T06:25:09.350Z,2.7
2023-03-27T06:26:25.592Z,2.5
2023-03-27T06:27:41.843Z,2.5
2023-03-27T06:28:58.078Z,2.4
2023-03-27T06:30:14.305Z,2.4
2023-03-27T06:31:30.557Z,2.5
2023-03-27T06:32:45.807Z,2.6
2023-03-27T06:34:02.047Z,2.3
2023-03-27T06:35:18.287Z,2.6
2023-03-27T06:36:34.534Z,2.3
2023-03-27T06:37:50.762Z,2.3
2023-03-27T06:39:07.006Z,2.3
2023-03-27T06:40:23.249Z,2.4
2023-03-27T06:41:38.507Z,2.1
2023-03-27T06:42:53.765Z,2.1
2023-03-27T06:44:09.031Z,2.2
2023-03-27T06:45:24.274Z,2.1
2023-03-27T06:46:40.533Z,1.9
2023-03-27T06:47:56.770Z,2.1
2023-03-27T06:49:12.999Z,2
2023-03-27T06:50:29.251Z,1.9
2023-03-27T06:51:45.488Z,1.9
2023-03-27T06:53:01.731Z,2
2023-03-27T06:54:17.980Z,2.1
2023-03-27T06:55:34.213Z,2
2023-03-27T06:56:50.444Z,2.6
2023-03-27T06:58:06.680Z,2.1
2023-03-27T06:59:22.937Z,1.8
2023-03-27T07:00:39.168Z,1.9
2023-03-27T07:01:54.441Z,2
2023-03-27T07:03:10.684Z,2.2
2023-03-27T07:04:26.915Z,2.1
2023-03-27T07:05:43.164Z,2.6
2023-03-27T07:06:59.388Z,2.2
2023-03-27T07:08:15.645Z,2.2
2023-03-27T07:09:31.875Z,2.2
2023-03-27T07:10:47.140Z,2.5
2023-03-27T07:12:02.394Z,1.9
2023-03-27T07:13:18.642Z,2.3
2023-03-27T07:14:34.866Z,2.1
2023-03-27T07:15:51.111Z,2.3
2023-03-27T07:17:07.362Z,2.1
2023-03-27T07:18:23.585Z,2.1
2023-03-27T07:20:56.089Z,2
2023-03-27T07:22:12.316Z,2.3
2023-03-27T07:23:28.554Z,2.4
2023-03-27T07:24:44.804Z,2.1
2023-03-27T07:26:01.045Z,2.1
2023-03-27T07:27:17.287Z,2.3
2023-03-27T07:28:32.536Z,2.2
2023-03-27T07:29:48.773Z,2.2
2023-03-27T07:31:05.024Z,2
2023-03-27T07:32:21.255Z,2.1
2023-03-27T07:33:37.512Z,2.3
2023-03-27T07:34:53.746Z,2.2
2023-03-27T07:36:09.980Z,2.3
2023-03-27T07:37:26.221Z,2.5
2023-03-27T07:38:41.485Z,2.1
2023-03-27T07:39:56.725Z,2.2
2023-03-27T07:41:11.997Z,2.2
2023-03-27T07:42:27.262Z,2.1
2023-03-27T07:43:42.515Z,2.4
2023-03-27T07:44:57.778Z,2.4
2023-03-27T07:46:14.009Z,2.4
2023-03-27T07:47:30.240Z,2.1
2023-03-27T07:48:46.483Z,2.3
2023-03-27T07:50:02.718Z,2.3
2023-03-27T07:51:18.969Z,2.3
2023-03-27T07:52:35.199Z,2.1
2023-03-27T07:53:51.445Z,2.1
2023-03-27T07:55:07.680Z,2
2023-03-27T07:56:23.928Z,1.8
2023-03-27T07:57:40.159Z,2
2023-03-27T07:58:56.397Z,1.9
2023-03-27T08:00:12.000Z,2
2023-03-27T08:01:27.909Z,1.9
2023-03-27T08:02:44.149Z,2.1
2023-03-27T08:04:00.382Z,1.7
2023-03-27T08:05:16.628Z,1.8
2023-03-27T08:06:32.855Z,1.7
2023-03-27T08:07:49.091Z,1.7
2023-03-27T08:09:05.337Z,1.6
2023-03-27T08:10:20.606Z,1.7
2023-03-27T08:11:35.869Z,1.8
2023-03-27T08:12:51.118Z,2
2023-03-27T08:14:06.375Z,2
2023-03-27T08:15:22.620Z,1.7
2023-03-27T08:16:38.844Z,1.6
2023-03-27T08:17:55.095Z,1.7
2023-03-27T08:19:11.336Z,1.7
2023-03-27T08:20:27.564Z,1.7
2023-03-27T08:21:43.815Z,1.7
2023-03-27T08:23:00.057Z,1.6
2023-03-27T08:24:16.307Z,1.7
2023-03-27T08:25:32.542Z,1.6
2023-03-27T08:26:48.795Z,1.7
2023-03-27T08:28:05.027Z,1.8
2023-03-27T08:29:21.267Z,1.7
2023-03-27T08:30:36.537Z,1.6
2023-03-27T08:31:52.760Z,1.8
2023-03-27T08:33:09.019Z,1.6
2023-03-27T08:34:25.258Z,1.8
2023-03-27T08:35:41.502Z,1.7
2023-03-27T08:36:57.728Z,1.7
2023-03-27T08:38:13.990Z,1.9
2023-03-27T08:39:29.245Z,1.8
2023-03-27T08:40:44.498Z,1.6
2023-03-27T08:42:00.730Z,1.5
2023-03-27T08:43:16.966Z,1.7
2023-03-27T08:44:33.224Z,1.8
2023-03-27T08:45:49.447Z,1.4
2023-03-27T08:47:05.692Z,1.7
2023-03-27T08:48:21.930Z,1.8
2023-03-27T08:49:38.183Z,1.8
2023-03-27T08:50:54.421Z,1.7
2023-03-27T08:52:10.660Z,2.1
2023-03-27T08:53:26.907Z,2
2023-03-27T08:54:43.146Z,2.4
2023-03-27T08:55:59.391Z,2
2023-03-27T08:57:14.660Z,2
2023-03-27T08:58:30.891Z,2.6
2023-03-27T08:59:47.121Z,2.4
2023-03-27T09:01:03.371Z,2.4
2023-03-27T09:02:19.617Z,2
2023-03-27T09:03:35.850Z,2.4
2023-03-27T09:04:52.098Z,2.2
2023-03-27T09:06:07.367Z,2.4
2023-03-27T09:07:22.612Z,2.4
2023-03-27T09:08:37.878Z,2.2
2023-03-27T09:09:53.143Z,2.3
2023-03-27T09:11:09.372Z,2.4
2023-03-27T09:12:25.615Z,2
2023-03-27T09:13:41.854Z,2.1
2023-03-27T09:14:58.099Z,2
2023-03-27T09:16:14.330Z,2
2023-03-27T09:17:30.563Z,2.2
2023-03-27T09:18:46.817Z,1.8
2023-03-27T09:20:03.044Z,1.6
2023-03-27T09:21:19.282Z,1.7
2023-03-27T09:22:35.548Z,1.8
2023-03-27T09:23:51.787Z,2.3
2023-03-27T09:25:08.015Z,2.2
2023-03-27T09:26:23.278Z,1.7
2023-03-27T09:27:39.524Z,2.7
2023-03-27T09:28:55.760Z,3.1
2023-03-27T09:30:12.007Z,2.3
2023-03-27T09:31:28.241Z,13.1
2023-03-27T09:32:44.499Z,6.2
2023-03-27T09:35:16.982Z,2
2023-03-27T09:36:32.259Z,2
2023-03-27T09:37:47.499Z,2.4
2023-03-27T09:39:02.764Z,2.4
2023-03-27T09:40:18.019Z,1.6
2023-03-27T09:41:34.258Z,1.8
2023-03-27T09:42:50.497Z,1.4
2023-03-27T09:44:06.733Z,1.7
2023-03-27T09:45:22.994Z,1.7
2023-03-27T09:46:39.218Z,2
2023-03-27T09:47:55.457Z,1.6
2023-03-27T09:49:11.704Z,1.7
2023-03-27T09:50:27.943Z,1.6
2023-03-27T09:51:44.187Z,1.9
2023-03-27T09:53:00.443Z,1.8
2023-03-27T09:54:16.677Z,1.9
2023-03-27T09:55:32.905Z,1.9
2023-03-27T09:56:48.172Z,1.7
2023-03-27T09:58:04.398Z,1.7
2023-03-27T09:59:20.645Z,2.1
2023-03-27T10:00:36.880Z,2
2023-03-27T10:01:53.130Z,1.7
2023-03-27T10:03:09.365Z,1.9
2023-03-27T10:04:25.612Z,1.7
2023-03-27T10:05:40.878Z,1.8
2023-03-27T10:06:56.135Z,1.8
2023-03-27T10:08:11.396Z,1.7
2023-03-27T10:09:26.648Z,2.2
2023-03-27T10:10:41.910Z,2.2
2023-03-27T10:11:57.170Z,2
2023-03-27T10:13:13.416Z,1.9
2023-03-27T10:14:29.657Z,2
2023-03-27T10:15:45.886Z,1.8
2023-03-27T10:18:18.368Z,2
2023-03-27T10:19:34.600Z,1.6
2023-03-27T10:20:50.838Z,1.9
2023-03-27T10:22:07.091Z,1.7
2023-03-27T10:23:22.345Z,1.8
2023-03-27T10:24:38.587Z,1.6
2023-03-27T10:25:54.831Z,1.7
2023-03-27T10:27:11.065Z,1.6
2023-03-27T10:28:27.297Z,1.7
2023-03-27T10:29:43.543Z,1.7
2023-03-27T10:30:59.784Z,1.5
2023-03-27T10:32:16.024Z,2
2023-03-27T10:33:32.274Z,2.3
2023-03-27T10:34:48.505Z,2
2023-03-27T10:36:04.747Z,2.4
2023-03-27T10:37:20.979Z,1.9
2023-03-27T10:38:36.252Z,1.9
2023-03-27T10:39:51.511Z,1.6
2023-03-27T10:41:06.759Z,1.6
2023-03-27T10:42:22.016Z,1.8
2023-03-27T10:43:38.265Z,1.9
2023-03-27T10:44:54.499Z,2
2023-03-27T10:46:10.729Z,2.3
2023-03-27T10:47:26.970Z,2.2
2023-03-27T10:48:43.228Z,2.2
2023-03-27T10:49:59.469Z,1.8
2023-03-27T10:51:15.709Z,1.8
2023-03-27T10:52:31.940Z,1.6
2023-03-27T10:53:48.181Z,1.8
2023-03-27T10:55:04.413Z,2.6
2023-03-27T10:56:20.659Z,2
2023-03-27T10:57:36.890Z,1.5
2023-03-27T10:58:53.148Z,1.5
2023-03-27T11:00:09.381Z,1.7
2023-03-27T11:01:25.615Z,1.9
2023-03-27T11:02:40.875Z,1.7
2023-03-27T11:03:57.113Z,1.5
2023-03-27T11:05:13.369Z,1.6
2023-03-27T11:06:29.609Z,2
2023-03-27T11:07:44.876Z,2.4
2023-03-27T11:09:00.137Z,2.1
2023-03-27T11:10:16.365Z,2.4
2023-03-27T11:11:32.602Z,2.6
2023-03-27T11:12:48.832Z,2.6
2023-03-27T11:14:05.076Z,1.9
2023-03-27T11:15:21.329Z,2.1
2023-03-27T11:17:53.794Z,2.1
2023-03-27T11:19:10.047Z,1.6
2023-03-27T11:20:26.283Z,1.6
2023-03-27T11:21:42.524Z,1.5
2023-03-27T11:22:58.765Z,1.8
2023-03-27T11:24:14.992Z,1.7
2023-03-27T11:25:30.246Z,1.7
2023-03-27T11:26:46.489Z,1.5
2023-03-27T11:28:02.723Z,1.6
2023-03-27T11:29:18.964Z,1.9
2023-03-27T11:30:35.212Z,1.8
2023-03-27T11:31:51.451Z,1.9
2023-03-27T11:33:07.688Z,1.6
2023-03-27T11:34:23.931Z,1.7
2023-03-27T11:35:39.183Z,1.4
2023-03-27T11:36:54.450Z,1.4
2023-03-27T11:38:09.708Z,1.5
2023-03-27T11:39:24.967Z,1.6
2023-03-27T11:40:40.222Z,2
2023-03-27T11:41:55.496Z,1.6
2023-03-27T11:43:11.732Z,1.8
2023-03-27T11:44:27.971Z,1.5
2023-03-27T11:45:44.211Z,1.6
2023-03-27T11:47:00.432Z,1.7
2023-03-27T11:48:16.687Z,1.6
2023-03-27T11:49:32.926Z,1.8
2023-03-27T11:50:49.160Z,1.7
2023-03-27T11:52:05.395Z,1.9
2023-03-27T11:53:21.643Z,1.9
2023-03-27T11:55:54.124Z,2
2023-03-27T11:57:10.360Z,1.8
2023-03-27T11:58:25.612Z,1.9
2023-03-27T11:59:41.863Z,2
2023-03-27T12:00:58.088Z,1.8
2023-03-27T12:02:14.329Z,1.7
2023-03-27T12:03:30.584Z,2.1
2023-03-27T12:04:46.820Z,1.7
2023-03-27T12:06:03.058Z,1.7
2023-03-27T12:07:19.293Z,1.9
2023-03-27T12:08:34.562Z,2
2023-03-27T12:09:49.815Z,2
2023-03-27T12:11:06.044Z,1.8
2023-03-27T12:12:22.285Z,1.9
2023-03-27T12:13:38.546Z,1.6
2023-03-27T12:14:54.772Z,1.9
2023-03-27T12:16:11.007Z,1.6
2023-03-27T12:17:27.262Z,1.7
2023-03-27T12:18:43.495Z,1.7
2023-03-27T12:19:59.737Z,1.7
2023-03-27T12:21:15.963Z,1.8
2023-03-27T12:22:32.222Z,2
2023-03-27T12:23:48.442Z,2
2023-03-27T12:25:04.701Z,2.2
2023-03-27T12:26:19.966Z,2.5
2023-03-27T12:27:36.189Z,2.4
2023-03-27T12:28:52.428Z,2.4
2023-03-27T12:30:08.670Z,2.3
2023-03-27T12:31:24.911Z,2.1
2023-03-27T12:32:41.150Z,2.5
2023-03-27T12:33:57.403Z,2.1
2023-03-27T12:35:12.665Z,2
2023-03-27T12:36:27.896Z,2.2
2023-03-27T12:37:44.152Z,2.1
2023-03-27T12:39:00.393Z,2.2
2023-03-27T12:40:16.623Z,2.3
2023-03-27T12:41:32.867Z,2.3
2023-03-27T12:42:49.113Z,2.2
2023-03-27T12:44:05.344Z,2.1
2023-03-27T12:45:21.578Z,2
2023-03-27T12:46:37.817Z,2
2023-03-27T12:47:54.063Z,1.4
2023-03-27T12:49:10.299Z,1.7
2023-03-27T12:50:26.546Z,1.6
2023-03-27T12:51:42.794Z,1.4
2023-03-27T12:52:58.041Z,1.6
2023-03-27T12:54:14.283Z,1.5
2023-03-27T12:55:30.512Z,1.5
2023-03-27T12:56:46.770Z,1.6
2023-03-27T12:58:02.992Z,1.6
2023-03-27T12:59:19.243Z,1.4
2023-03-27T13:00:35.485Z,1.3
2023-03-27T13:01:50.734Z,1.3
2023-03-27T13:03:06.006Z,1.6
2023-03-27T13:04:21.262Z,1.5
2023-03-27T13:05:36.517Z,1.6
2023-03-27T13:06:52.760Z,1.6
2023-03-27T13:08:08.986Z,1.5
2023-03-27T13:09:25.238Z,1.6
2023-03-27T13:10:41.483Z,1.5
2023-03-27T13:11:57.710Z,1.5
2023-03-27T13:13:13.949Z,1.4
2023-03-27T13:14:30.205Z,1.6
2023-03-27T13:15:46.435Z,1.5
2023-03-27T13:17:02.665Z,1.6
2023-03-27T13:18:18.907Z,1.4
2023-03-27T13:19:35.149Z,1.5
2023-03-27T13:20:51.386Z,1.7
2023-03-27T13:22:06.670Z,1.5
2023-03-27T13:23:22.891Z,1.5
2023-03-27T13:24:39.135Z,1.4
2023-03-27T13:25:55.359Z,1.5
2023-03-27T13:27:11.618Z,1.5
2023-03-27T13:28:27.842Z,1.3
2023-03-27T13:29:44.097Z,1.3
2023-03-27T13:30:59.358Z,1.3
2023-03-27T13:32:14.602Z,1.5
2023-03-27T13:33:30.855Z,1.4
2023-03-27T13:34:47.093Z,1.4
2023-03-27T13:36:03.334Z,1.5
2023-03-27T13:37:19.563Z,1.3
2023-03-27T13:38:35.806Z,1.4
2023-03-27T13:39:52.055Z,1.5
2023-03-27T13:41:08.298Z,1.4
2023-03-27T13:42:24.518Z,1.9
2023-03-27T13:43:40.759Z,1.8
2023-03-27T13:44:57.010Z,1.8
2023-03-27T13:46:13.240Z,2.1
2023-03-27T13:47:29.503Z,2.1
2023-03-27T13:48:44.736Z,1.7
2023-03-27T13:50:00.995Z,1.9
2023-03-27T13:51:17.232Z,2.2
2023-03-27T13:52:33.474Z,2.6
2023-03-27T13:53:49.698Z,2.6
2023-03-27T13:55:05.950Z,2.3
2023-03-27T13:56:22.181Z,2.1
2023-03-27T13:57:37.441Z,2.3
2023-03-27T13:58:52.709Z,2.9
2023-03-27T14:00:07.959Z,3
2023-03-27T14:01:23.222Z,2.5
2023-03-27T14:02:39.470Z,2.1
2023-03-27T14:03:55.702Z,2.3
2023-03-27T14:05:11.948Z,2.2
2023-03-27T14:06:28.175Z,1.8
2023-03-27T14:07:44.429Z,1.9
2023-03-27T14:09:00.663Z,2
2023-03-27T14:10:16.905Z,2.1
2023-03-27T14:11:33.154Z,2
2023-03-27T14:12:49.392Z,2
2023-03-27T14:14:05.629Z,2.1
2023-03-27T14:15:21.881Z,1.8
2023-03-27T14:16:38.109Z,1.8
2023-03-27T14:17:53.368Z,1.8
2023-03-27T14:19:09.614Z,1.8
2023-03-27T14:20:25.853Z,1.8
2023-03-27T14:21:42.092Z,1.8
2023-03-27T14:22:58.324Z,1.6
2023-03-27T14:24:14.571Z,1.6
2023-03-27T14:25:30.806Z,1.6
2023-03-27T14:28:02.315Z,1.9
2023-03-27T14:29:17.577Z,1.7
2023-03-27T14:30:32.821Z,1.5
2023-03-27T14:31:48.107Z,1.7
2023-03-27T14:33:03.332Z,1.6
2023-03-27T14:34:18.608Z,1.7
2023-03-27T14:35:33.870Z,1.9
2023-03-27T14:36:50.099Z,1.8
2023-03-27T14:38:05.356Z,1.7
2023-03-27T14:39:21.597Z,1.6
2023-03-27T14:40:37.836Z,1.6
2023-03-27T14:41:54.085Z,1.8
2023-03-27T14:43:10.313Z,1.7
2023-03-27T14:44:26.565Z,1.9
2023-03-27T14:45:42.808Z,1.8
2023-03-27T14:46:59.035Z,1.5
2023-03-27T14:48:15.296Z,1.3
2023-03-27T14:49:31.535Z,1.3
2023-03-27T14:50:47.759Z,1.8
2023-03-27T14:52:04.014Z,1.5
2023-03-27T14:53:20.246Z,1.5
2023-03-27T14:54:35.516Z,1.4
2023-03-27T14:55:51.735Z,1.5
2023-03-27T14:57:07.984Z,1.3
2023-03-27T14:58:24.000Z,1.3
2023-03-27T14:59:40.481Z,1.3
2023-03-27T15:00:55.717Z,1.3
2023-03-27T15:02:10.998Z,1.4
2023-03-27T15:03:27.215Z,1.3
2023-03-27T15:04:43.468Z,1.5
2023-03-27T15:05:59.704Z,1.5
2023-03-27T15:07:15.948Z,1.3
2023-03-27T15:08:32.186Z,1.3
2023-03-27T15:09:48.413Z,2.5
2023-03-27T15:11:04.671Z,2.2
2023-03-27T15:12:20.894Z,1.5
2023-03-27T15:13:37.144Z,1.4
2023-03-27T15:14:53.375Z,1.8
2023-03-27T15:16:09.621Z,1.7
2023-03-27T15:17:25.865Z,1.7
2023-03-27T15:18:41.127Z,1.7
2023-03-27T15:19:57.367Z,1.4
2023-03-27T15:21:13.594Z,1.7
2023-03-27T15:22:29.833Z,1.4
2023-03-27T15:23:46.071Z,1.3
2023-03-27T15:25:02.329Z,1.3
2023-03-27T15:26:18.560Z,1.3
2023-03-27T15:27:33.819Z,1.3
2023-03-27T15:28:49.086Z,1.4
2023-03-27T15:30:04.335Z,1.3
2023-03-27T15:31:19.590Z,1.2
2023-03-27T15:32:34.860Z,1.3
2023-03-27T15:33:50.120Z,1.2
2023-03-27T15:35:06.362Z,1.1
2023-03-27T15:36:22.592Z,1.2
2023-03-27T15:37:38.827Z,1.1
2023-03-27T15:38:55.069Z,0.9
2023-03-27T15:40:11.308Z,1
2023-03-27T15:41:27.560Z,1.1
2023-03-27T15:42:43.786Z,1.2
2023-03-27T15:44:00.042Z,1.1
2023-03-27T15:45:16.280Z,1.1
2023-03-27T15:46:32.514Z,1.1
2023-03-27T15:47:48.752Z,1.2
2023-03-27T15:49:04.998Z,1.2
2023-03-27T15:50:20.260Z,1.1
2023-03-27T15:51:36.513Z,1.1
2023-03-27T15:52:52.740Z,1.2
2023-03-27T15:54:08.976Z,1.1
2023-03-27T15:55:25.229Z,1.1
2023-03-27T15:56:41.450Z,1.3
2023-03-27T15:57:57.687Z,1.4
2023-03-27T15:59:12.964Z,1.3
2023-03-27T16:00:28.212Z,1.3
2023-03-27T16:01:44.453Z,1.2
2023-03-27T16:03:00.701Z,1.2
2023-03-27T16:04:16.926Z,1.4
2023-03-27T16:05:33.182Z,1.8
2023-03-27T16:06:49.406Z,1.4
2023-03-27T16:08:05.659Z,1.6
2023-03-27T16:09:21.900Z,1.8
2023-03-27T16:10:38.153Z,1.7
2023-03-27T16:11:54.384Z,1.7
2023-03-27T16:13:10.613Z,1.6
2023-03-27T16:14:26.852Z,1.9
2023-03-27T16:15:43.089Z,1.8
2023-03-27T16:16:58.362Z,1.8
2023-03-27T16:18:14.597Z,1.8
2023-03-27T16:19:30.847Z,1.8
2023-03-27T16:20:47.082Z,1.6
2023-03-27T16:22:03.319Z,2
2023-03-27T16:23:19.555Z,1.7
2023-03-27T16:24:35.800Z,1.7
2023-03-27T16:25:51.064Z,1.5
2023-03-27T16:27:06.304Z,1.3
2023-03-27T16:28:21.574Z,1.4
2023-03-27T16:29:36.828Z,1.4
2023-03-27T16:30:52.102Z,1.3
2023-03-27T16:32:07.353Z,1.3
2023-03-27T16:33:23.579Z,1.2
2023-03-27T16:34:39.834Z,1
2023-03-27T16:35:56.073Z,1.6
2023-03-27T16:37:12.328Z,1
2023-03-27T16:38:28.552Z,1.1
2023-03-27T16:39:44.780Z,1.1
2023-03-27T16:41:01.033Z,1.1
2023-03-27T16:42:17.272Z,1.1
2023-03-27T16:43:33.521Z,2
2023-03-27T16:44:49.745Z,1.2
2023-03-27T16:46:05.996Z,1.2
2023-03-27T16:47:22.229Z,1.2
2023-03-27T16:48:37.490Z,1.1
2023-03-27T16:49:53.729Z,1.5
2023-03-27T16:51:09.980Z,1.7
2023-03-27T16:52:26.218Z,1.1
2023-03-27T16:53:42.444Z,1.1
2023-03-27T16:54:58.697Z,2.2
2023-03-27T16:56:14.941Z,2.7
2023-03-27T16:57:30.187Z,1.8
2023-03-27T17:00:01.682Z,1.7
2023-03-27T17:01:17.920Z,2.8
2023-03-27T17:02:34.172Z,1.8
2023-03-27T17:03:50.416Z,1.6
2023-03-27T17:05:06.655Z,2.9
2023-03-27T17:06:22.897Z,3.1
2023-03-27T17:07:39.137Z,1.6
2023-03-27T17:08:55.374Z,1.3
2023-03-27T17:10:11.609Z,1.3
2023-03-27T17:11:27.844Z,1.6
2023-03-27T17:12:44.087Z,1.6
2023-03-27T17:14:00.334Z,1.4
2023-03-27T17:15:15.594Z,1.5
2023-03-27T17:16:31.827Z,1.4
2023-03-27T17:17:48.077Z,1.4
2023-03-27T17:19:04.327Z,1.3
2023-03-27T17:20:20.542Z,1.3
2023-03-27T17:21:36.792Z,1.3
2023-03-27T17:22:53.026Z,1.3
2023-03-27T17:24:09.273Z,1.5
2023-03-27T17:25:24.553Z,1.5
2023-03-27T17:26:39.786Z,1.3
2023-03-27T17:27:56.032Z,1.5
2023-03-27T17:29:12.265Z,1.3
2023-03-27T17:30:28.509Z,1.3
2023-03-27T17:31:44.749Z,1.4
2023-03-27T17:33:00.996Z,1.8
2023-03-27T17:34:17.243Z,1.3
2023-03-27T17:35:33.466Z,1.4
2023-03-27T17:38:05.955Z,1.6
2023-03-27T17:39:22.198Z,1.3
2023-03-27T17:40:38.436Z,1.4
2023-03-27T17:41:54.670Z,1.3
2023-03-27T17:43:09.942Z,1.4